Time;durP1;ratioP1;P1;durP2;ratioP2;P2;SDS_P1;SDS_P2;PMS_P1;PMS_P2;Temp;Humidity;BMP_temperature;BMP_pressure;BME280_temperature;BME280_humidity;BME280_pressure;Samples;Min_cycle;Max_cycle;Signal;HPM_P1;HPM_P2
2022/04/17 00:00:16;;;;;;;33.88;17.83;;;;;;;2.09;99.47;103273.06;4965850;28;20035;-75
2022/04/17 00:02:43;;;;;;;30.20;17.48;;;;;;;2.10;100.00;103273.03;4978754;28;20125;-75
2022/04/17 00:05:09;;;;;;;32.90;17.92;;;;;;;2.05;100.00;103268.84;4925394;28;20102;-76
2022/04/17 00:07:34;;;;;;;39.25;20.63;;;;;;;2.06;100.00;103274.00;4952974;28;20071;-74
2022/04/17 00:10:01;;;;;;;38.67;20.15;;;;;;;2.04;100.00;103269.72;4963457;28;20065;-77
2022/04/17 00:12:29;;;;;;;38.13;20.52;;;;;;;1.95;100.00;103261.25;4944411;29;20042;-73
2022/04/17 00:14:55;;;;;;;33.90;19.08;;;;;;;1.90;100.00;103255.31;4942952;28;20047;-75
2022/04/17 00:17:23;;;;;;;37.03;20.38;;;;;;;1.90;100.00;103263.09;4931702;28;20497;-75
2022/04/17 00:19:49;;;;;;;44.38;21.50;;;;;;;1.89;100.00;103256.19;4970909;28;20081;-76
2022/04/17 00:22:15;;;;;;;45.17;22.40;;;;;;;1.86;100.00;103251.06;4942036;28;20045;-76
2022/04/17 00:24:42;;;;;;;45.17;24.48;;;;;;;1.86;100.00;103256.22;4957438;28;20031;-75
2022/04/17 00:27:10;;;;;;;48.75;24.35;;;;;;;1.91;100.00;103261.34;4950346;28;20066;-76
2022/04/17 00:29:36;;;;;;;55.47;27.88;;;;;;;1.89;100.00;103256.19;4935347;28;20812;-75
2022/04/17 00:32:02;;;;;;;57.22;27.70;;;;;;;1.90;100.00;103254.44;4958351;28;20149;-76
2022/04/17 00:34:29;;;;;;;61.20;29.23;;;;;;;1.85;100.00;103256.28;4936005;28;20110;-77
2022/04/17 00:36:59;;;;;;;60.15;27.88;;;;;;;1.84;100.00;103251.97;4977168;28;20788;-77
2022/04/17 00:39:28;;;;;;;64.72;30.10;;;;;;;1.80;100.00;103245.16;4933625;28;20746;-76
2022/04/17 00:41:55;;;;;;;59.88;29.52;;;;;;;1.77;100.00;103248.63;4932720;28;20070;-75
2022/04/17 00:44:20;;;;;;;64.13;30.92;;;;;;;1.66;100.00;103242.84;4961180;28;20102;-75
2022/04/17 00:46:46;;;;;;;72.63;33.88;;;;;;;1.58;100.00;103235.19;4952151;28;20035;-75
2022/04/17 00:49:12;;;;;;;70.53;34.55;;;;;;;1.63;100.00;103245.47;4944724;28;20053;-76
2022/04/17 00:51:38;;;;;;;67.60;34.35;;;;;;;1.55;100.00;103230.06;4934479;28;20039;-76
2022/04/17 00:54:07;;;;;;;75.18;35.97;;;;;;;1.55;100.00;103232.66;4945595;28;20035;-75
2022/04/17 00:56:34;;;;;;;76.35;37.80;;;;;;;1.44;100.00;103224.22;4959414;28;20065;-75
2022/04/17 00:59:06;;;;;;;91.88;40.10;;;;;;;1.43;100.00;103227.69;4964069;28;20062;-75
2022/04/17 01:01:33;;;;;;;74.85;39.42;;;;;;;1.45;100.00;103225.91;4958560;28;20047;-76
2022/04/17 01:03:59;;;;;;;85.38;41.85;;;;;;;1.43;100.00;103236.31;4948431;28;20114;-75
2022/04/17 01:06:26;;;;;;;82.38;40.28;;;;;;;1.34;100.00;103232.16;4948571;28;20407;-75
2022/04/17 01:08:52;;;;;;;87.60;40.20;;;;;;;1.30;100.00;103225.31;4965368;28;20042;-76
2022/04/17 01:11:18;;;;;;;81.05;38.97;;;;;;;1.31;100.00;103231.34;4960447;28;20070;-77
2022/04/17 01:13:44;;;;;;;87.82;38.35;;;;;;;1.23;100.00;103220.28;4959756;28;20047;-77
2022/04/17 01:16:11;;;;;;;74.10;35.88;;;;;;;1.17;100.00;103222.09;4961957;28;20407;-75
2022/04/17 01:19:03;;;;;;;69.70;36.03;;;;;;;1.14;100.00;103223.84;4974592;28;20031;-76
2022/04/17 01:21:30;;;;;;;81.75;38.92;;;;;;;1.14;100.00;103229.03;4943892;28;20130;-74
2022/04/17 01:26:57;;;;;;;74.60;37.35;;;;;;;1.07;100.00;103227.41;4957769;28;20042;-74
2022/04/17 01:29:43;;;;;;;74.47;36.20;;;;;;;1.08;100.00;103219.63;4935618;28;20062;-74
2022/04/17 01:32:10;;;;;;;67.95;36.75;;;;;;;1.11;100.00;103214.44;4963229;28;20054;-74
2022/04/17 01:34:37;;;;;;;69.22;35.15;;;;;;;1.09;100.00;103217.91;4945763;28;20105;-73
2022/04/17 01:37:03;;;;;;;76.82;36.90;;;;;;;1.12;100.00;103220.44;4935656;28;20042;-75
2022/04/17 01:39:30;;;;;;;74.88;36.45;;;;;;;1.09;100.00;103205.84;4976425;28;20047;-77
2022/04/17 01:41:56;;;;;;;78.65;38.95;;;;;;;1.03;100.00;103203.34;4960194;28;20397;-76
2022/04/17 01:44:24;;;;;;;83.97;38.00;;;;;;;1.07;100.00;103211.91;4943201;28;20035;-76
2022/04/17 01:46:51;;;;;;;77.47;37.55;;;;;;;1.01;100.00;103194.75;4958104;28;20726;-77
2022/04/17 01:49:18;;;;;;;77.32;36.75;;;;;;;1.07;100.00;103209.31;4965839;28;20077;-77
2022/04/17 01:51:46;;;;;;;72.13;36.08;;;;;;;0.98;100.00;103194.84;4934041;29;20102;-77
2022/04/17 01:54:17;;;;;;;73.18;36.55;;;;;;;1.01;100.00;103199.09;4934485;28;20042;-76
2022/04/17 01:56:44;;;;;;;70.60;36.17;;;;;;;1.00;100.00;103194.78;4930007;28;20058;-75
2022/04/17 01:59:11;;;;;;;67.35;35.55;;;;;;;0.97;100.00;103196.53;4967510;28;20464;-76
2022/04/17 02:01:38;;;;;;;70.18;35.55;;;;;;;0.94;100.00;103196.59;4965565;28;20503;-76
2022/04/17 02:04:05;;;;;;;73.10;37.70;;;;;;;0.92;100.00;103188.03;4951355;28;20477;-76
2022/04/17 02:06:31;;;;;;;79.53;39.63;;;;;;;0.89;100.00;103187.22;4969187;28;20101;-76
2022/04/17 02:08:57;;;;;;;73.22;37.25;;;;;;;0.85;100.00;103189.00;4949531;28;20043;-76
2022/04/17 02:11:24;;;;;;;84.05;40.03;;;;;;;0.83;100.00;103188.16;4955319;28;20093;-75
2022/04/17 02:13:50;;;;;;;84.20;40.75;;;;;;;0.81;100.00;103182.16;4963532;28;20221;-76
2022/04/17 02:16:19;;;;;;;79.65;39.25;;;;;;;0.73;100.00;103171.94;4931580;28;20031;-75
2022/04/17 02:18:49;;;;;;;82.72;40.40;;;;;;;0.82;100.00;103176.09;4945492;29;20031;-74
2022/04/17 02:21:16;;;;;;;80.25;41.33;;;;;;;0.79;100.00;103168.41;4965747;28;20042;-76
2022/04/17 02:23:43;;;;;;;83.03;40.47;;;;;;;0.77;100.00;103172.72;4946253;28;20120;-75
2022/04/17 02:26:10;;;;;;;90.57;43.78;;;;;;;0.75;100.00;103164.16;4968220;28;20051;-75
2022/04/17 02:28:37;;;;;;;85.38;44.45;;;;;;;0.74;100.00;103170.22;4956021;28;20492;-75
2022/04/17 02:31:04;;;;;;;93.88;45.10;;;;;;;0.65;100.00;103158.28;4934941;28;20039;-74
2022/04/17 02:33:31;;;;;;;88.65;44.70;;;;;;;0.68;100.00;103162.53;4956788;28;20035;-76
2022/04/17 02:35:57;;;;;;;91.93;44.25;;;;;;;0.56;100.00;103153.25;4956027;28;20042;-74
2022/04/17 02:38:24;;;;;;;79.53;41.17;;;;;;;0.64;100.00;103171.22;4962277;28;20026;-78
2022/04/17 02:40:50;;;;;;;83.47;40.63;;;;;;;0.61;100.00;103160.94;4951503;28;20065;-74
2022/04/17 02:43:16;;;;;;;79.97;40.40;;;;;;;0.57;100.00;103152.38;4961442;28;20035;-76
2022/04/17 02:45:43;;;;;;;84.53;40.22;;;;;;;0.58;100.00;103157.53;4948637;28;20024;-76
2022/04/17 02:48:08;;;;;;;86.55;39.67;;;;;;;0.52;100.00;103144.69;4959780;28;20544;-77
2022/04/17 02:50:34;;;;;;;85.07;39.30;;;;;;;0.56;100.00;103155.84;4935607;28;20068;-77
2022/04/17 02:52:59;;;;;;;86.70;39.10;;;;;;;0.46;100.00;103143.94;4948811;28;20093;-76
2022/04/17 02:55:25;;;;;;;78.50;39.67;;;;;;;0.37;100.00;103147.50;4937212;28;20034;-76
2022/04/17 02:57:52;;;;;;;72.22;38.85;;;;;;;0.35;100.00;103144.09;4963325;28;20139;-75
2022/04/17 03:00:21;;;;;;;77.13;38.17;;;;;;;0.28;100.00;103148.47;4940223;28;20039;-76
2022/04/17 03:08:00;;;;;;;70.90;36.90;;;;;;;0.23;100.00;103152.84;4962284;28;20042;-75
2022/04/17 03:10:26;;;;;;;69.22;37.75;;;;;;;0.15;100.00;103134.91;4933517;28;20050;-74
2022/04/17 03:12:52;;;;;;;66.78;35.35;;;;;;;0.21;100.00;103140.81;4955619;28;20034;-76
2022/04/17 03:15:18;;;;;;;68.25;35.90;;;;;;;0.19;100.00;103135.72;4962974;28;20041;-74
2022/04/17 03:17:44;;;;;;;68.18;36.67;;;;;;;0.13;100.00;103130.59;4936282;28;20035;-74
2022/04/17 03:20:09;;;;;;;70.30;39.78;;;;;;;0.05;100.00;103127.28;4942827;28;20121;-75
2022/04/17 03:22:35;;;;;;;72.03;36.40;;;;;;;0.00;100.00;103124.78;4968857;28;20043;-74
2022/04/17 03:25:04;;;;;;;70.63;37.65;;;;;;;-0.07;100.00;103117.97;4954330;28;20047;-76
2022/04/17 03:27:30;;;;;;;75.25;37.65;;;;;;;-0.03;100.00;103127.38;4936607;28;20535;-72
2022/04/17 03:29:56;;;;;;;72.07;36.38;;;;;;;-0.02;100.00;103137.69;4926492;28;20043;-76
2022/04/17 03:32:22;;;;;;;68.30;36.38;;;;;;;-0.03;100.00;103130.81;4956901;28;20053;-77
2022/04/17 03:34:48;;;;;;;70.65;37.42;;;;;;;-0.04;100.00;103133.41;4973128;28;20047;-76
2022/04/17 03:37:14;;;;;;;75.15;38.00;;;;;;;-0.05;100.00;103114.50;4964578;28;20122;-74
2022/04/17 03:39:48;;;;;;;74.20;38.13;;;;;;;0.04;100.00;103133.31;4931727;29;20098;-76
2022/04/17 03:42:15;;;;;;;76.65;39.63;;;;;;;-0.04;100.00;103141.16;4942313;28;20042;-74
2022/04/17 03:44:41;;;;;;;76.25;38.42;;;;;;;-0.04;100.00;103136.88;4964104;28;20037;-76
2022/04/17 03:47:07;;;;;;;78.15;41.50;;;;;;;-0.02;100.00;103140.28;4955457;28;20065;-75
2022/04/17 03:49:33;;;;;;;72.43;38.75;;;;;;;-0.07;100.00;103131.72;4959761;28;20724;-75
2022/04/17 03:52:00;;;;;;;75.15;38.67;;;;;;;-0.09;100.00;103133.47;4943152;28;20098;-75
2022/04/17 03:54:26;;;;;;;76.15;38.75;;;;;;;-0.14;100.00;103132.66;4946049;28;20051;-75
2022/04/17 03:56:52;;;;;;;73.35;38.58;;;;;;;-0.10;100.00;103142.06;4945816;29;20837;-74
2022/04/17 03:59:18;;;;;;;69.57;36.10;;;;;;;-0.18;100.00;103138.75;4945062;28;20081;-74
2022/04/17 04:01:46;;;;;;;65.45;33.97;;;;;;;-0.15;100.00;103145.59;4934504;28;20114;-75
2022/04/17 04:04:12;;;;;;;64.30;35.55;;;;;;;-0.23;100.00;103135.34;4962312;28;20579;-75
2022/04/17 04:06:37;;;;;;;68.38;36.30;;;;;;;-0.23;100.00;103127.63;4953884;28;20035;-75
2022/04/17 04:09:03;;;;;;;72.18;38.08;;;;;;;-0.28;100.00;103127.69;4960606;28;20049;-75
2022/04/17 04:11:29;;;;;;;72.68;39.25;;;;;;;-0.28;100.00;103135.44;4944588;29;20130;-75
2022/04/17 04:13:55;;;;;;;81.07;42.80;;;;;;;-0.35;100.00;103128.63;4944801;28;20030;-75
2022/04/17 04:16:21;;;;;;;73.43;38.58;;;;;;;-0.36;100.00;103133.78;4926379;28;20046;-75
2022/04/17 04:18:46;;;;;;;70.57;40.45;;;;;;;-0.39;100.00;103126.97;4955756;28;20039;-75
2022/04/17 04:21:12;;;;;;;71.57;37.42;;;;;;;-0.40;100.00;103130.41;4972101;28;20066;-75
2022/04/17 04:23:39;;;;;;;68.78;37.30;;;;;;;-0.36;100.00;103142.38;4957178;28;20516;-74
2022/04/17 04:26:05;;;;;;;74.65;35.83;;;;;;;-0.33;100.00;103133.78;4950373;28;20039;-75
2022/04/17 04:28:33;;;;;;;67.43;34.05;;;;;;;-0.34;100.00;103130.34;4948755;28;20045;-75
2022/04/17 04:31:00;;;;;;;68.45;35.80;;;;;;;-0.34;100.00;103130.34;4954985;28;20105;-75
2022/04/17 04:33:26;;;;;;;66.90;34.83;;;;;;;-0.34;100.00;103132.94;4963823;28;20551;-74
2022/04/17 04:35:52;;;;;;;64.60;34.35;;;;;;;-0.30;100.00;103137.16;4965960;28;20038;-75
2022/04/17 04:38:18;;;;;;;57.47;32.25;;;;;;;-0.27;100.00;103144.00;4934413;28;20480;-76
2022/04/17 04:40:44;;;;;;;65.63;34.83;;;;;;;-0.30;100.00;103137.16;4959041;28;20053;-77
2022/04/17 04:43:09;;;;;;;60.15;33.60;;;;;;;-0.31;100.00;103139.75;4944477;28;20046;-75
2022/04/17 04:49:29;;;;;;;61.63;33.42;;;;;;;-0.34;100.00;103150.97;4969379;28;20170;-75
2022/04/17 04:51:05;;;;;;;58.67;31.88;;;;;;;-0.28;100.00;103138.00;4953731;28;20027;-78
2022/04/17 04:53:32;;;;;;;65.40;34.60;;;;;;;-0.21;100.00;103139.66;4952048;28;20050;-74
2022/04/17 04:55:57;;;;;;;77.35;38.70;;;;;;;-0.13;100.00;103136.09;4961754;28;20086;-75
2022/04/17 04:58:23;;;;;;;71.05;36.58;;;;;;;-0.05;100.00;103142.88;4952294;28;20095;-76
2022/04/17 05:00:48;;;;;;;70.13;35.15;;;;;;;0.01;100.00;103139.38;4970681;28;20504;-76
2022/04/17 05:03:14;;;;;;;64.22;34.25;;;;;;;0.04;100.00;103146.22;4957231;28;20133;-75
2022/04/17 05:05:39;;;;;;;63.65;33.63;;;;;;;0.05;100.00;103147.94;4950822;28;20055;-74
2022/04/17 05:08:05;;;;;;;65.43;33.65;;;;;;;0.09;100.00;103144.44;4950417;28;20047;-75
2022/04/17 05:10:32;;;;;;;64.32;34.65;;;;;;;0.21;100.00;103146.00;4966266;28;20502;-76
2022/04/17 05:12:57;;;;;;;66.47;34.83;;;;;;;0.26;100.00;103150.22;4934855;28;20062;-76
2022/04/17 05:15:23;;;;;;;66.63;36.47;;;;;;;0.37;100.00;103152.66;4952749;28;20041;-75
2022/04/17 05:17:49;;;;;;;65.45;35.28;;;;;;;0.44;100.00;103154.28;4936304;28;20564;-76
2022/04/17 05:20:15;;;;;;;67.25;36.70;;;;;;;0.55;100.00;103156.72;4964483;28;20093;-74
2022/04/17 05:22:41;;;;;;;64.78;35.20;;;;;;;0.69;100.00;103159.09;4947392;28;20038;-77
2022/04/17 05:25:07;;;;;;;67.15;36.55;;;;;;;0.85;100.00;103165.75;4968145;28;20841;-75
2022/04/17 05:27:32;;;;;;;67.45;35.25;;;;;;;0.93;100.00;103150.09;4959037;28;20038;-76
2022/04/17 05:29:58;;;;;;;72.60;37.92;;;;;;;1.16;100.00;103157.47;4981391;28;20454;-75
2022/04/17 05:32:24;;;;;;;68.55;36.47;;;;;;;1.33;100.00;103164.94;4960529;28;20039;-75
2022/04/17 05:34:50;;;;;;;67.97;35.00;;;;;;;1.49;100.00;103163.78;4942005;28;20070;-75
2022/04/17 05:37:16;;;;;;;68.00;36.15;;;;;;;1.53;100.00;103162.84;4946821;28;20035;-76
2022/04/17 05:39:41;;;;;;;60.28;34.08;;;;;;;1.66;100.00;103171.22;4940152;28;20042;-75
2022/04/17 05:42:08;;;;;;;61.83;33.75;;;;;;;1.81;100.00;103176.97;4937243;28;20401;-74
2022/04/17 05:44:37;;;;;;;64.22;35.58;;;;;;;1.98;100.00;103166.28;4943313;28;20056;-76
2022/04/17 05:47:03;;;;;;;65.53;34.15;;;;;;;2.23;100.00;103162.31;4968523;28;20509;-75
2022/04/17 05:49:29;;;;;;;57.50;31.20;;;;;;;2.50;100.00;103163.41;4961184;28;20438;-76
2022/04/17 05:51:58;;;;;;;58.88;30.13;;;;;;;2.60;100.00;103156.31;4948204;28;20797;-74
2022/04/17 05:54:25;;;;;;;63.83;31.10;;;;;;;2.66;100.00;103153.56;4951390;28;20058;-76
2022/04/17 05:56:51;;;;;;;60.17;32.03;;;;;;;2.78;100.00;103159.34;4932270;28;20504;-75
2022/04/17 05:59:17;;;;;;;60.95;31.17;;;;;;;2.86;100.00;103162.59;4959657;28;20030;-74
2022/04/17 06:01:43;;;;;;;49.58;27.25;;;;;;;2.98;100.00;103164.06;4964042;28;20062;-74
2022/04/17 06:04:08;;;;;;;53.45;28.38;;;;;;;3.10;100.00;103159.41;4950247;28;20035;-74
2022/04/17 06:06:34;;;;;;;53.53;28.70;;;;;;;3.29;100.00;103164.13;4974518;28;21582;-76
2022/04/17 06:09:00;;;;;;;52.13;28.38;;;;;;;3.48;100.00;103167.06;4935034;28;20122;-76
2022/04/17 06:11:26;;;;;;;52.83;28.40;;;;;;;3.60;100.00;103158.09;4931011;29;20125;-75
2022/04/17 06:13:52;;;;;;;48.85;25.75;;;;;;;3.81;100.00;103154.09;4943543;29;20504;-74
2022/04/17 06:16:18;;;;;;;46.42;25.30;;;;;;;3.96;100.00;103164.03;4958995;28;20485;-76
2022/04/17 06:18:43;;;;;;;50.78;25.85;;;;;;;4.12;100.00;103160.97;4975053;28;20043;-76
2022/04/17 06:21:11;;;;;;;50.67;24.65;;;;;;;4.25;100.00;103160.56;4978333;28;20819;-75
2022/04/17 06:23:37;;;;;;;45.63;23.90;;;;;;;4.46;98.78;103155.59;4967135;28;20027;-76
2022/04/17 06:26:02;;;;;;;43.33;22.55;;;;;;;4.61;97.38;103159.47;4953155;28;20050;-74
2022/04/17 06:28:28;;;;;;;49.92;23.88;;;;;;;4.75;95.42;103156.47;4956879;28;20098;-75
2022/04/17 06:30:54;;;;;;;49.35;24.70;;;;;;;4.85;94.03;103161.28;4963539;28;20566;-76
2022/04/17 06:33:20;;;;;;;52.13;26.15;;;;;;;4.86;93.73;103157.81;4972557;28;20031;-77
2022/04/17 06:35:46;;;;;;;60.53;27.58;;;;;;;4.82;93.44;103153.59;4966484;28;20925;-75
2022/04/17 06:38:12;;;;;;;54.40;28.65;;;;;;;4.83;93.41;103151.84;4948692;28;20055;-76
2022/04/17 06:40:38;;;;;;;52.30;27.17;;;;;;;4.96;92.68;103152.31;4960551;28;20042;-75
2022/04/17 06:43:08;;;;;;;54.05;28.30;;;;;;;5.21;92.15;103158.34;4944866;28;20050;-75
2022/04/17 06:45:38;;;;;;;55.72;28.50;;;;;;;5.40;92.20;103158.56;4966727;28;20042;-74
2022/04/17 06:48:17;;;;;;;56.50;27.55;;;;;;;5.59;88.47;103155.31;4965824;28;20090;-74
2022/04/17 06:50:43;;;;;;;56.17;27.35;;;;;;;5.62;89.42;103156.06;4932114;29;20038;-76
2022/04/17 06:53:09;;;;;;;53.25;26.67;;;;;;;5.86;88.48;103156.09;4959089;28;20045;-75
2022/04/17 06:55:35;;;;;;;47.70;24.27;;;;;;;5.88;85.54;103145.59;4934458;29;20791;-74
2022/04/17 06:58:01;;;;;;;49.70;24.00;;;;;;;6.08;85.45;103155.31;4941958;28;20527;-74
2022/04/17 07:00:27;;;;;;;50.40;24.42;;;;;;;6.16;84.78;103142.81;4960428;28;20104;-74
2022/04/17 07:02:52;;;;;;;46.50;22.20;;;;;;;6.22;84.58;103151.28;4947386;28;20043;-76
2022/04/17 07:05:18;;;;;;;26.65;14.45;;;;;;;6.26;82.64;103151.16;4953043;28;20114;-76
2022/04/17 07:07:44;;;;;;;27.73;12.70;;;;;;;6.40;80.10;103147.13;4945757;28;20186;-75
2022/04/17 07:10:11;;;;;;;26.80;11.57;;;;;;;6.40;77.02;103144.50;4980359;28;20042;-74
2022/04/17 07:12:37;;;;;;;26.33;9.82;;;;;;;6.21;76.39;103146.94;4951014;28;20062;-76
2022/04/17 07:15:06;;;;;;;17.05;8.98;;;;;;;6.32;75.82;103135.28;4962179;28;20066;-74
2022/04/17 07:17:35;;;;;;;17.45;8.60;;;;;;;6.51;77.32;103146.66;4941878;28;20067;-75
2022/04/17 07:20:05;;;;;;;15.13;8.15;;;;;;;6.71;74.71;103142.44;4976651;28;20046;-75
2022/04/17 07:22:32;;;;;;;20.50;9.60;;;;;;;6.90;75.64;103145.13;4974847;28;20821;-75
2022/04/17 07:25:00;;;;;;;20.27;8.93;;;;;;;7.06;75.47;103135.72;4943337;28;20412;-75
2022/04/17 07:27:25;;;;;;;20.85;8.77;;;;;;;7.17;73.89;103136.13;4950853;28;20038;-74
2022/04/17 07:29:52;;;;;;;17.15;8.07;;;;;;;7.30;75.82;103138.22;4956994;28;20042;-75
2022/04/17 07:32:19;;;;;;;19.90;9.82;;;;;;;7.21;70.78;103148.16;4947519;28;20034;-76
2022/04/17 07:34:45;;;;;;;18.02;9.27;;;;;;;7.25;71.99;103140.16;4952067;28;20058;-75
2022/04/17 07:37:11;;;;;;;17.88;8.35;;;;;;;7.40;71.11;103139.50;4957653;28;20077;-74
2022/04/17 07:39:36;;;;;;;15.35;7.90;;;;;;;7.51;70.61;103128.59;4953901;28;20045;-75
2022/04/17 07:42:03;;;;;;;13.32;7.40;;;;;;;7.71;69.75;103125.09;4949658;28;20038;-75
2022/04/17 07:44:29;;;;;;;17.17;7.75;;;;;;;7.75;68.05;103131.88;4942262;28;20043;-74
2022/04/17 07:46:55;;;;;;;15.57;6.93;;;;;;;7.96;67.50;103127.41;4948439;28;20500;-74
2022/04/17 07:49:26;;;;;;;13.15;5.90;;;;;;;7.96;63.74;103122.19;4958494;28;20035;-75
2022/04/17 07:51:51;;;;;;;16.52;6.70;;;;;;;7.97;63.88;103126.50;4936952;28;20403;-75
2022/04/17 07:54:17;;;;;;;11.00;5.80;;;;;;;8.04;63.84;103121.84;4947828;28;20034;-75
2022/04/17 07:56:43;;;;;;;13.60;6.78;;;;;;;8.29;66.15;103124.16;4945027;28;20130;-76
2022/04/17 07:59:08;;;;;;;12.00;5.75;;;;;;;8.58;64.66;103133.22;4972575;28;20038;-75
2022/04/17 08:01:39;;;;;;;11.70;5.50;;;;;;;8.69;60.60;103127.47;4945357;28;20042;-75
2022/04/17 08:04:05;;;;;;;12.57;5.93;;;;;;;8.60;59.19;103131.38;4946032;28;20066;-76
2022/04/17 08:06:31;;;;;;;14.45;5.53;;;;;;;8.62;60.58;103115.63;4971143;28;20054;-76
2022/04/17 08:08:57;;;;;;;11.40;5.97;;;;;;;8.73;60.17;103123.78;4954234;28;20042;-75
2022/04/17 08:11:24;;;;;;;14.35;5.53;;;;;;;8.92;60.20;103113.22;4962657;28;20789;-76
2022/04/17 08:13:51;;;;;;;13.15;5.68;;;;;;;9.08;59.30;103126.38;4952613;28;20039;-75
2022/04/17 08:16:19;;;;;;;10.98;5.72;;;;;;;9.20;57.28;103127.53;4948304;28;20066;-75
2022/04/17 08:18:44;;;;;;;13.60;6.28;;;;;;;9.17;56.02;103110.19;4974579;28;20080;-76
2022/04/17 08:21:11;;;;;;;10.65;5.75;;;;;;;9.25;57.18;103125.50;4946217;28;20532;-77
2022/04/17 08:23:37;;;;;;;13.82;5.75;;;;;;;9.15;56.95;103115.53;4951406;28;20031;-75
2022/04/17 08:26:06;;;;;;;13.07;5.45;;;;;;;9.41;58.41;103109.84;4936116;28;20062;-77
2022/04/17 08:28:32;;;;;;;13.80;6.35;;;;;;;9.58;58.45;103103.72;4934753;28;20496;-77
2022/04/17 08:30:58;;;;;;;14.13;6.30;;;;;;;9.68;59.45;103104.91;4963001;28;20090;-77
2022/04/17 08:33:26;;;;;;;13.38;5.32;;;;;;;9.84;56.01;103107.56;4954914;28;20086;-77
2022/04/17 08:35:57;;;;;;;12.15;5.00;;;;;;;10.03;56.51;103107.38;4943657;28;20043;-77
2022/04/17 08:38:23;;;;;;;8.07;4.15;;;;;;;9.89;51.40;103113.41;4964766;28;20229;-77
2022/04/17 08:40:50;;;;;;;10.70;4.38;;;;;;;9.70;53.85;103106.53;4962381;28;20043;-76
2022/04/17 08:43:21;;;;;;;7.63;3.55;;;;;;;9.90;53.64;103107.22;4955966;28;20187;-75
2022/04/17 08:45:50;;;;;;;5.15;3.33;;;;;;;10.04;53.05;103107.31;4960075;28;20034;-76
2022/04/17 08:48:16;;;;;;;7.55;3.35;;;;;;;10.18;53.59;103100.44;4962929;28;20401;-76
2022/04/17 08:50:42;;;;;;;8.35;3.88;;;;;;;10.35;51.71;103102.16;4917565;29;20039;-76
2022/04/17 08:53:09;;;;;;;6.45;3.33;;;;;;;10.26;50.47;103098.22;4960211;28;20145;-77
2022/04/17 08:55:35;;;;;;;7.18;3.17;;;;;;;10.20;51.57;103095.94;4943471;28;20042;-76
2022/04/17 08:58:00;;;;;;;4.82;2.80;;;;;;;10.22;50.76;103094.09;4964494;28;20063;-76
2022/04/17 09:00:26;;;;;;;7.70;3.63;;;;;;;10.23;50.67;103082.69;4974395;28;20063;-76
2022/04/17 09:02:51;;;;;;;6.10;3.38;;;;;;;10.29;50.83;103083.16;4919406;29;20431;-76
2022/04/17 09:05:20;;;;;;;6.80;3.58;;;;;;;10.18;51.57;103090.78;4961094;28;20035;-75
2022/04/17 09:07:54;;;;;;;8.75;3.20;;;;;;;10.27;51.87;103076.31;4946313;28;20074;-76
2022/04/17 09:10:28;;;;;;;5.97;3.38;;;;;;;10.38;49.42;103075.72;4946042;28;20051;-75
2022/04/17 09:12:59;;;;;;;7.32;3.33;;;;;;;10.45;51.05;103071.81;4929595;28;20039;-78
2022/04/17 09:15:27;;;;;;;5.57;2.65;;;;;;;10.61;50.74;103075.25;4949475;28;20038;-75
2022/04/17 09:17:53;;;;;;;6.18;3.13;;;;;;;10.66;50.62;103067.94;4939689;28;20039;-76
2022/04/17 09:20:22;;;;;;;7.45;3.67;;;;;;;10.94;49.75;103066.28;4958426;28;20500;-76
2022/04/17 09:22:48;;;;;;;8.13;3.17;;;;;;;11.03;48.75;103067.53;4965614;28;20049;-74
2022/04/17 09:25:15;;;;;;;7.78;3.58;;;;;;;11.07;48.44;103061.16;4949361;28;20137;-75
2022/04/17 09:28:01;;;;;;;7.05;2.65;;;;;;;11.20;46.00;103063.88;4965504;28;20039;-78
2022/04/17 09:30:30;;;;;;;5.28;2.70;;;;;;;11.17;44.70;103062.28;4935342;28;20078;-75
2022/04/17 09:32:57;;;;;;;4.35;2.55;;;;;;;11.10;44.47;103061.81;4943370;28;20046;-76
2022/04/17 09:35:26;;;;;;;5.68;3.00;;;;;;;11.30;44.27;103052.72;4936563;28;20027;-77
2022/04/17 09:38:00;;;;;;;7.38;2.70;;;;;;;11.29;43.62;103058.06;4960621;28;20109;-75
2022/04/17 09:40:27;;;;;;;7.18;3.25;;;;;;;11.39;43.85;103051.28;4946852;28;20039;-76
2022/04/17 09:43:12;;;;;;;6.88;2.85;;;;;;;11.56;43.54;103042.34;4966222;28;20057;-77
2022/04/17 09:46:00;;;;;;;6.80;2.10;;;;;;;11.74;42.64;103050.03;4949295;28;20043;-75
2022/04/17 09:48:44;;;;;;;6.10;1.90;;;;;;;11.93;41.74;103034.78;4951604;28;20046;-76
2022/04/17 09:51:25;;;;;;;4.28;1.90;;;;;;;11.93;40.68;103023.44;4984838;28;20451;-75
2022/04/17 09:54:03;;;;;;;5.22;1.92;;;;;;;12.24;42.87;103022.25;4950758;28;20035;-74
2022/04/17 09:56:32;;;;;;;3.65;1.92;;;;;;;12.55;43.54;103026.31;4968756;28;20070;-75
2022/04/17 09:58:59;;;;;;;2.85;1.42;;;;;;;12.75;40.19;103030.22;4948148;28;20039;-75
2022/04/17 10:01:27;;;;;;;3.63;1.70;;;;;;;12.90;40.38;103027.47;4948209;28;20489;-75
2022/04/17 10:03:54;;;;;;;3.50;1.77;;;;;;;12.82;39.93;103020.09;4934518;28;20043;-76
2022/04/17 10:06:22;;;;;;;3.30;1.58;;;;;;;12.87;39.21;103011.91;4967248;28;20027;-75
2022/04/17 10:08:48;;;;;;;4.03;1.92;;;;;;;12.92;37.74;103015.03;4951173;28;20035;-76
2022/04/17 10:11:14;;;;;;;4.85;1.60;;;;;;;12.88;41.41;103008.28;4945192;28;20050;-75
2022/04/17 10:13:41;;;;;;;3.20;1.77;;;;;;;13.05;39.83;103011.47;4936082;28;20408;-74
2022/04/17 10:16:08;;;;;;;3.47;1.63;;;;;;;12.88;36.05;103005.66;4967012;28;20047;-76
2022/04/17 10:18:39;;;;;;;4.85;1.63;;;;;;;12.91;38.07;103000.19;4954332;28;20019;-75
2022/04/17 10:21:06;;;;;;;2.60;1.55;;;;;;;13.07;38.14;102995.50;4964657;28;20154;-75
2022/04/17 10:23:35;;;;;;;3.45;1.70;;;;;;;13.38;37.59;102982.84;4955919;28;20038;-76
2022/04/17 10:26:03;;;;;;;3.72;1.95;;;;;;;13.38;37.27;102975.78;4949168;28;20409;-76
2022/04/17 10:28:34;;;;;;;3.78;2.10;;;;;;;13.11;38.00;102975.94;4964325;28;20027;-75
2022/04/17 10:31:14;;;;;;;7.32;2.95;;;;;;;13.13;36.89;102973.16;4951268;28;20046;-74
2022/04/17 10:33:49;;;;;;;3.15;1.67;;;;;;;13.44;39.23;102961.31;4969384;28;20034;-74
2022/04/17 10:36:27;;;;;;;2.90;1.67;;;;;;;13.63;38.46;102956.38;4935315;28;20047;-75
2022/04/17 10:39:09;;;;;;;5.13;1.92;;;;;;;13.78;39.27;102964.13;4958633;28;20043;-75
2022/04/17 10:41:34;;;;;;;3.30;1.60;;;;;;;13.72;36.39;102954.03;4941559;29;20047;-74
2022/04/17 10:44:03;;;;;;;5.28;2.75;;;;;;;13.70;38.29;102956.78;4944021;28;20496;-76
2022/04/17 10:46:29;;;;;;;2.92;1.73;;;;;;;13.80;38.64;102944.56;4961119;28;20034;-75
2022/04/17 10:49:01;;;;;;;3.85;1.55;;;;;;;13.90;38.23;102947.38;4966728;28;20035;-75
2022/04/17 10:51:31;;;;;;;5.82;2.20;;;;;;;14.00;37.97;102940.44;4945321;28;20137;-75
2022/04/17 10:54:07;;;;;;;7.63;3.15;;;;;;;13.97;37.16;102940.66;4962519;28;20042;-77
2022/04/17 10:56:57;;;;;;;4.38;2.10;;;;;;;13.94;37.27;102932.19;4959668;28;20943;-76
2022/04/17 10:59:27;;;;;;;3.17;1.45;;;;;;;13.97;37.44;102927.47;4980926;28;20039;-75
2022/04/17 11:01:54;;;;;;;2.45;1.60;;;;;;;14.07;37.35;102926.78;4954443;28;20226;-75
2022/04/17 11:04:31;;;;;;;5.53;1.50;;;;;;;14.17;37.97;102931.25;4964548;28;20042;-77
2022/04/17 11:07:05;;;;;;;3.80;1.27;;;;;;;14.36;36.43;102937.78;4964549;28;20055;-75
2022/04/17 11:09:33;;;;;;;6.65;2.28;;;;;;;14.28;34.98;102919.03;4942467;28;20058;-75
2022/04/17 11:12:27;;;;;;;4.18;1.58;;;;;;;14.32;35.02;102918.69;4952928;28;20039;-75
2022/04/17 11:15:05;;;;;;;3.80;2.30;;;;;;;14.42;35.20;102916.16;4928941;28;20490;-76
2022/04/17 11:17:32;;;;;;;1.60;1.10;;;;;;;14.01;33.33;102923.69;4938035;28;20504;-76
2022/04/17 11:19:59;;;;;;;2.22;1.27;;;;;;;14.08;33.31;102916.13;4947193;28;20035;-76
2022/04/17 11:22:35;;;;;;;3.45;1.80;;;;;;;14.18;34.38;102908.34;4944659;28;20034;-76
2022/04/17 11:25:03;;;;;;;2.70;1.35;;;;;;;14.12;33.03;102920.19;4964642;28;20054;-76
2022/04/17 11:27:31;;;;;;;1.40;1.13;;;;;;;13.95;31.14;102913.56;4964415;28;20516;-76